Terminal Aerodrome Forecast
Issued by NWS Cleveland, OH

Home | Current Version | Previous Version | Graphics & Text | Print | Product List | Glossary Off
Versions: 1 2 3 4 5 6 7 8 9 10 11 12 13 14

288
FTUS41 KCLE 271421 AAA
TAFMFD
TAF AMD
KMFD 271421Z 2714/2812 17012KT P6SM SCT100 BKN250
     FM271500 18015G25KT P6SM BKN050 OVC100
      TEMPO 2716/2720 5SM -TSRA BKN030CB OVC060
     FM272000 22015G25KT P6SM BKN035
     FM280200 23012KT P6SM BKN030=

USA.gov is the U.S. government's official web portal to all federal, state and local government web resources and services.